Flight Track Log - Related Links

Times and Time Zones

All times are in EDT time to prevent confusion due to time zone crossing. See the DAL3895 flight status page for this flight to view local times or setup timezone preferences in your user account.

Time Position Orientation Groundspeed Altitude Reporting Facility
EDT Latitude Longitude Course Direction KTS MPH feet Rate Location/Type
Mon 12:37:49 PM 39.8833 -75.2167 270° West 166 191 700  Level Philadelphia TRACON
Mon 12:38:55 PM 39.9000 -75.1500 72° East 205 236 3,000 1,984 Climbing Philadelphia TRACON
Mon 12:39:56 PM 39.9167 -75.0667 75° East 219 252 4,900 1,041 Climbing Philadelphia TRACON
Mon 12:40:56 PM 39.9833 -75.0167 30° Northeast 290 334 5,100 650 Climbing Philadelphia TRACON
Mon 12:41:00 PM 39.9000 -75.7954 270° West  Level FlightAware Approximate
Mon 12:41:56 PM 40.0500 -75.0000 11° North 272 313 6,200  Level Philadelphia TRACON
Mon 12:42:00 PM 39.9000 -75.9416 270° West  Level FlightAware Approximate
Mon 12:42:56 PM 40.1000 -75.0667 314° West 277 319 7,000  Level Philadelphia TRACON
Mon 12:43:00 PM 39.9000 -76.0877 270° West  Level FlightAware Approximate
Mon 12:43:56 PM 40.0833 -75.1500 255° West 268 308 8,900  Level Philadelphia TRACON
Mon 12:44:56 PM 40.0500 -75.2500 246° West 290 334 9,000 214 Climbing Philadelphia TRACON
Mon 12:46:44 PM 39.9628 -75.3886 231° Southwest 292 336 9,500 357 Climbing New York Center
Mon 12:47:44 PM 39.9322 -75.4758 245° Southwest 280 322 10,000 454 Climbing New York Center
Mon 12:48:43 PM 39.9356 -75.5981 272° West 306 352 10,400 1,613 Climbing New York Center
Mon 12:49:43 PM 39.9794 -75.6931 301° West 320 368 13,200 2,380 Climbing New York Center
Mon 12:50:44 PM 39.9886 -75.8211 275° West 320 368 15,200 1,462 Climbing New York Center
Mon 12:51:42 PM 39.9819 -75.9292 265° West 326 375 16,100 966 Climbing New York Center
Mon 12:52:42 PM 39.9742 -76.0558 265° West 349 402 17,100 1,041 Climbing New York Center
Mon 12:53:43 PM 39.9633 -76.2014 264° West 369 425 18,200 1,041 Climbing New York Center
Mon 12:54:43 PM 39.9547 -76.3442 266° West 376 433 19,200 992 Climbing New York Center
Mon 12:55:44 PM 39.9094 -76.4622 243° Southwest 367 422 20,200 1,008 Climbing New York Center
Mon 12:56:42 PM 39.8639 -76.5858 244° Southwest 378 435 21,200 1,008 Climbing New York Center
Mon 12:57:43 PM 39.8181 -76.7064 244° Southwest 378 435 22,200 942 Climbing New York Center
Mon 12:58:43 PM 39.7744 -76.8269 245° Southwest 378 435 23,100 765 Climbing New York Center
Mon 01:00:12 PM 39.7119 -76.9886 243° Southwest 377 434 24,100 694 Climbing Washington Center
Mon 01:01:10 PM 39.6667 -77.1092 244° Southwest 372 428 24,800 661 Climbing Washington Center
Mon 01:02:10 PM 39.6214 -77.2322 244° Southwest 377 434 25,400 500 Climbing Washington Center
Mon 01:03:10 PM 39.5736 -77.3550 243° Southwest 383 441 25,800 496 Climbing Washington Center
Mon 01:04:11 PM 39.5281 -77.4775 244° Southwest 383 441 26,400 541 Climbing Washington Center
Mon 01:05:12 PM 39.4822 -77.6028 245° Southwest 383 441 26,900 492 Climbing Washington Center
Mon 01:06:13 PM 39.4322 -77.7250 242° Southwest 383 441 27,400 508 Climbing Washington Center
Mon 01:07:10 PM 39.3842 -77.8525 244° Southwest 383 441 27,900 305 Climbing Washington Center
Mon 01:08:11 PM 39.3358 -77.9744 243° Southwest 383 441 28,000 49 Climbing Washington Center
Mon 01:09:12 PM 39.2853 -78.1014 243° Southwest 383 441 28,000  Level Washington Center
Mon 01:10:10 PM 39.2347 -78.2311 243° Southwest 395 455 28,000  Level Washington Center
Mon 01:11:11 PM 39.1817 -78.3603 242° Southwest 405 466 28,000  Level Washington Center
Mon 01:12:12 PM 39.1286 -78.4867 242° Southwest 405 466 28,000  Level Washington Center
Mon 01:13:12 PM 39.0753 -78.6211 243° Southwest 405 466 28,000  Level Washington Center
Mon 01:14:10 PM 39.0219 -78.7550 243° Southwest 410 472 28,000  Level Washington Center
Mon 01:15:10 PM 38.9683 -78.8864 242° Southwest 410 472 28,000  Level Washington Center
Mon 01:16:11 PM 38.9147 -79.0172 242° Southwest 415 478 28,000  Level Washington Center
Mon 01:17:12 PM 38.8631 -79.1456 243° Southwest 415 478 28,000  Level Washington Center
Mon 01:18:10 PM 38.8381 -79.2856 257° West 415 478 28,000  Level Washington Center
Mon 01:19:12 PM 38.8356 -79.4294 269° West 406 467 28,000  Level Washington Center
Mon 01:20:10 PM 38.8344 -79.5919 270° West 406 467 28,000  Level Washington Center
Mon 01:21:11 PM 38.8317 -79.7356 269° West 412 474 28,000  Level Washington Center
Mon 01:22:12 PM 38.8286 -79.8767 268° West 412 474 28,000  Level Washington Center
Mon 01:23:38 PM 38.8197 -80.0783 267° West 401 461 28,000  Level Indianapolis Center
Mon 01:24:40 PM 38.8167 -80.2211 268° West 401 461 28,000  Level Indianapolis Center
Mon 01:25:41 PM 38.8117 -80.3653 267° West 400 460 28,000  Level Indianapolis Center
Mon 01:26:43 PM 38.8081 -80.5058 268° West 398 458 28,000  Level Indianapolis Center
Mon 01:27:45 PM 38.8039 -80.6486 268° West 400 460 28,000  Level Indianapolis Center
Mon 01:28:46 PM 38.8000 -80.7925 268° West 404 465 28,000  Level Indianapolis Center
Mon 01:29:48 PM 38.7958 -80.9358 268° West 403 464 28,000  Level Indianapolis Center
Mon 01:30:49 PM 38.7900 -81.1081 268° West 404 465 28,000  Level Indianapolis Center
Mon 01:31:51 PM 38.7853 -81.2514 268° West 403 464 28,000 -387 Level Indianapolis Center
Mon 01:32:53 PM 38.7803 -81.3953 267° West 407 468 27,200 -878 Descending Indianapolis Center
Mon 01:33:54 PM 38.7739 -81.5386 267° West 409 471 26,200 -927 Descending Indianapolis Center
Mon 01:34:56 PM 38.7694 -81.6769 268° West 409 471 25,300 -1,016 Descending Indianapolis Center
Mon 01:35:58 PM 38.7619 -81.8486 267° West 406 467 24,100 -634 Descending Indianapolis Center
Mon 01:36:59 PM 38.7558 -81.9928 267° West 408 470 24,000 -49 Descending Indianapolis Center
Mon 01:38:01 PM 38.7261 -82.1300 255° West 398 458 24,000  Level Indianapolis Center
Mon 01:39:03 PM 38.6908 -82.2656 252° West 402 463 24,000  Level Indianapolis Center
Mon 01:40:04 PM 38.6553 -82.3994 251° West 400 460 24,000  Level Indianapolis Center
Mon 01:41:06 PM 38.6178 -82.5381 251° West 401 461 24,000 -439 Level Indianapolis Center
Mon 01:42:07 PM 38.5753 -82.6692 248° West 402 463 23,100 -488 Descending Indianapolis Center
Mon 01:43:09 PM 38.4667 -82.7461 209° Southwest 379 436 23,000 -32 Descending Indianapolis Center
Mon 01:45:12 PM 38.2756 -82.8478 203° Southwest 374 430 23,000  Level Indianapolis Center
Mon 01:46:14 PM 38.1922 -82.9069 209° Southwest 360 414 23,000  Level Indianapolis Center
Mon 01:47:15 PM 38.1783 -83.0358 262° West 364 419 23,000  Level Indianapolis Center
Mon 01:48:17 PM 38.2111 -83.1525 290° West 360 414 23,000 -341 Level Indianapolis Center
Mon 01:49:18 PM 38.2689 -83.2608 304° West 367 422 22,300 -1,512 Descending Indianapolis Center
Mon 01:50:20 PM 38.3350 -83.3872 304° West 368 423 19,900 -2,195 Descending Indianapolis Center
Mon 01:51:21 PM 38.3889 -83.4919 303° West 357 411 17,800 -2,049 Descending Indianapolis Center
Mon 01:52:23 PM 38.4456 -83.5983 304° West 361 415 15,700 -2,049 Descending Indianapolis Center
Mon 01:53:24 PM 38.5022 -83.7069 304° West 366 421 13,600 -2,098 Descending Indianapolis Center
Mon 01:54:26 PM 38.5553 -83.8128 303° West 355 409 11,400 -1,707 Descending Indianapolis Center
Mon 01:55:27 PM 38.6067 -83.9119 304° West 338 389 10,100 -683 Descending Indianapolis Center
Mon 01:56:29 PM 38.6631 -84.0200 304° West 330 380 10,000 -49 Descending Indianapolis Center
Mon 01:57:30 PM 38.7139 -84.1189 303° West 330 380 10,000  Level Indianapolis Center
Mon 01:58:32 PM 38.7667 -84.2169 305° West 331 381 10,000  Level Indianapolis Center
Mon 01:59:33 PM 38.8167 -84.3172 303° West 330 380 10,000  Level Indianapolis Center
Mon 02:00:35 PM 38.8678 -84.4153 304° West 328 377 10,000 -341 Level Indianapolis Center
Mon 02:01:36 PM 38.9150 -84.5078 303° West 309 356 9,300 -492 Descending Indianapolis Center
Mon 02:02:37 PM 38.9869 -84.5392 341° North 294 338 9,000 -683 Descending Indianapolis Center
Mon 02:03:39 PM 39.0711 -84.5406 359° North 299 344 7,900 -1,268 Descending Indianapolis Center
Mon 02:04:40 PM 39.1522 -84.5411 360° North 291 335 6,400 -1,463 Descending Indianapolis Center
Mon 02:05:42 PM 39.2281 -84.5431 359° North 278 320 4,900 -1,463 Descending Indianapolis Center
Mon 02:06:43 PM 39.2447 -84.6169 286° West 257 296 3,400 -1,475 Descending Indianapolis Center

Login

Don't have an account? Register now (free) for customized features, flight alerts, and more!